createdAt,value
2023-05-20T00:00:12.570Z,8.77
2023-05-20T00:03:06.729Z,8.80
2023-05-20T00:05:40.551Z,8.53
2023-05-20T00:08:14.263Z,8.43
2023-05-20T00:10:47.483Z,9.87
2023-05-20T00:13:21.592Z,8.57
2023-05-20T00:15:55.410Z,9.33
2023-05-20T00:18:29.603Z,9.00
2023-05-20T00:21:03.897Z,8.30
2023-05-20T00:23:37.623Z,8.90
2023-05-20T00:26:10.735Z,9.07
2023-05-20T00:28:44.171Z,8.73
2023-05-20T00:31:17.952Z,9.20
2023-05-20T00:33:52.305Z,9.03
2023-05-20T00:36:27.675Z,8.97
2023-05-20T00:39:02.397Z,9.43
2023-05-20T00:41:35.824Z,9.53
2023-05-20T00:44:10.411Z,9.13
2023-05-20T00:46:44.405Z,9.67
2023-05-20T00:49:19.161Z,9.33
2023-05-20T00:51:52.710Z,9.20
2023-05-20T00:54:26.701Z,8.93
2023-05-20T00:57:03.349Z,9.80
2023-05-20T00:59:38.146Z,8.93
2023-05-20T01:02:12.968Z,10.30
2023-05-20T01:04:47.786Z,9.73
2023-05-20T01:07:22.711Z,9.50
2023-05-20T01:09:56.836Z,10.30
2023-05-20T01:12:33.416Z,10.30
2023-05-20T01:15:12.643Z,10.47
2023-05-20T01:17:48.197Z,10.55
2023-05-20T01:20:23.136Z,9.83
2023-05-20T01:22:58.664Z,10.00
2023-05-20T01:25:32.729Z,10.07
2023-05-20T01:28:07.569Z,9.20
2023-05-20T01:30:46.519Z,9.60
2023-05-20T01:33:25.855Z,9.10
2023-05-20T01:36:00.610Z,10.03
2023-05-20T01:38:35.249Z,9.63
2023-05-20T01:41:09.413Z,9.07
2023-05-20T01:43:44.031Z,9.23
2023-05-20T01:46:18.574Z,10.90
2023-05-20T01:48:53.110Z,10.45
2023-05-20T01:51:26.990Z,11.43
2023-05-20T01:54:00.996Z,10.43
2023-05-20T01:56:34.567Z,10.20
2023-05-20T01:59:09.729Z,10.30
2023-05-20T02:01:43.544Z,11.13
2023-05-20T02:04:19.501Z,9.80
2023-05-20T02:06:53.236Z,10.57
2023-05-20T02:09:30.053Z,10.47
2023-05-20T02:12:03.915Z,10.23
2023-05-20T02:14:37.579Z,10.60
2023-05-20T02:17:11.814Z,10.30
2023-05-20T02:19:46.067Z,10.33
2023-05-20T02:22:19.817Z,9.83
2023-05-20T02:24:53.340Z,10.47
2023-05-20T02:27:26.936Z,9.70
2023-05-20T02:30:01.593Z,10.47
2023-05-20T02:32:36.311Z,10.10
2023-05-20T02:35:11.898Z,10.57
2023-05-20T02:37:46.013Z,10.13
2023-05-20T02:40:20.359Z,10.37
2023-05-20T02:42:54.355Z,10.43
2023-05-20T02:45:28.240Z,10.43
2023-05-20T02:48:02.431Z,11.07
2023-05-20T02:50:39.559Z,11.10
2023-05-20T02:53:13.671Z,10.57
2023-05-20T02:55:47.484Z,10.37
2023-05-20T02:58:26.547Z,10.77
2023-05-20T03:01:00.479Z,10.73
2023-05-20T03:03:34.969Z,11.13
2023-05-20T03:06:08.677Z,10.63
2023-05-20T03:08:43.585Z,11.30
2023-05-20T03:11:17.142Z,10.87
2023-05-20T03:13:50.750Z,11.37
2023-05-20T03:16:25.455Z,11.53
2023-05-20T03:18:59.586Z,10.90
2023-05-20T03:21:34.336Z,11.43
2023-05-20T03:24:09.744Z,10.30
2023-05-20T03:26:44.119Z,11.23
2023-05-20T03:29:18.113Z,10.80
2023-05-20T03:31:52.171Z,10.30
2023-05-20T03:34:28.161Z,11.20
2023-05-20T03:37:01.653Z,11.13
2023-05-20T03:39:36.685Z,11.27
2023-05-20T03:42:10.948Z,10.70
2023-05-20T03:44:44.313Z,11.43
2023-05-20T03:47:18.502Z,10.57
2023-05-20T03:49:52.721Z,11.13
2023-05-20T03:52:26.538Z,10.00
2023-05-20T03:55:01.393Z,11.13
2023-05-20T03:57:36.844Z,11.43
2023-05-20T04:00:14.823Z,11.60
2023-05-20T04:02:51.597Z,11.90
2023-05-20T04:05:26.882Z,11.20
2023-05-20T04:08:01.239Z,10.83
2023-05-20T04:10:35.331Z,10.87
2023-05-20T04:13:09.154Z,12.30
2023-05-20T04:15:43.259Z,12.93
2023-05-20T04:18:17.352Z,12.27
2023-05-20T04:20:51.805Z,12.87
2023-05-20T04:23:26.194Z,12.33
2023-05-20T04:26:02.891Z,12.77
2023-05-20T04:28:37.950Z,12.50
2023-05-20T04:31:13.051Z,13.13
2023-05-20T04:33:47.061Z,13.73
2023-05-20T04:36:21.074Z,12.97
2023-05-20T04:38:55.484Z,13.20
2023-05-20T04:41:29.413Z,13.30
2023-05-20T04:44:04.267Z,14.93
2023-05-20T04:46:38.603Z,14.30
2023-05-20T04:49:12.907Z,14.37
2023-05-20T04:51:50.327Z,13.07
2023-05-20T04:54:25.585Z,13.17
2023-05-20T04:56:59.698Z,14.50
2023-05-20T04:59:33.856Z,14.97
2023-05-20T05:02:08.266Z,14.27
2023-05-20T05:04:41.968Z,15.40
2023-05-20T05:07:15.828Z,16.67
2023-05-20T05:09:49.928Z,14.33
2023-05-20T05:12:23.855Z,14.13
2023-05-20T05:14:59.065Z,15.27
2023-05-20T05:17:32.977Z,15.80
2023-05-20T05:20:10.574Z,14.83
2023-05-20T05:22:45.742Z,16.07
2023-05-20T05:25:19.986Z,14.73
2023-05-20T05:27:55.656Z,13.53
2023-05-20T05:30:30.132Z,14.33
2023-05-20T05:33:04.534Z,12.20
2023-05-20T05:35:38.655Z,12.83
2023-05-20T05:38:12.737Z,11.60
2023-05-20T05:40:46.615Z,12.23
2023-05-20T05:43:20.273Z,12.17
2023-05-20T05:45:54.504Z,11.80
2023-05-20T05:48:29.003Z,10.90
2023-05-20T05:51:02.710Z,10.97
2023-05-20T05:53:37.438Z,11.43
2023-05-20T05:56:11.269Z,9.73
2023-05-20T05:58:48.620Z,9.70
2023-05-20T06:01:23.657Z,9.57
2023-05-20T06:03:58.812Z,9.33
2023-05-20T06:06:33.041Z,9.10
2023-05-20T06:09:06.988Z,9.03
2023-05-20T06:11:42.491Z,9.17
2023-05-20T06:14:17.463Z,8.23
2023-05-20T06:16:52.554Z,8.80
2023-05-20T06:19:28.518Z,8.50
2023-05-20T06:22:03.016Z,9.00
2023-05-20T06:24:37.386Z,8.77
2023-05-20T06:27:11.219Z,8.30
2023-05-20T06:29:45.389Z,8.80
2023-05-20T06:32:19.760Z,9.70
2023-05-20T06:34:53.562Z,9.03
2023-05-20T06:37:26.996Z,9.00
2023-05-20T06:40:02.686Z,9.03
2023-05-20T06:42:36.690Z,9.73
2023-05-20T06:45:14.112Z,8.95
2023-05-20T06:47:50.565Z,9.53
2023-05-20T06:50:25.237Z,9.40
2023-05-20T06:52:59.420Z,8.40
2023-05-20T06:55:33.907Z,9.13
2023-05-20T06:58:08.831Z,8.63
2023-05-20T07:00:44.320Z,8.30
2023-05-20T07:03:18.538Z,8.63
2023-05-20T07:05:54.682Z,8.43
2023-05-20T07:08:29.764Z,9.40
2023-05-20T07:11:02.930Z,8.87
2023-05-20T07:13:37.637Z,8.40
2023-05-20T07:16:12.073Z,9.03
2023-05-20T07:18:49.901Z,8.60
2023-05-20T07:21:25.516Z,8.57
2023-05-20T07:24:21.620Z,8.93
2023-05-20T07:26:56.152Z,8.60
2023-05-20T07:29:30.827Z,8.60
2023-05-20T07:32:06.769Z,8.33
2023-05-20T07:34:41.284Z,8.90
2023-05-20T07:37:16.704Z,8.93
2023-05-20T07:39:50.710Z,8.50
2023-05-20T07:42:24.228Z,9.03
2023-05-20T07:45:02.437Z,10.27
2023-05-20T07:47:36.432Z,9.90
2023-05-20T07:50:12.668Z,8.67
2023-05-20T07:52:55.886Z,8.23
2023-05-20T07:55:35.962Z,9.10
2023-05-20T07:58:10.696Z,8.83
2023-05-20T08:00:46.037Z,8.97
2023-05-20T08:03:20.269Z,10.03
2023-05-20T08:06:04.803Z,9.03
2023-05-20T08:08:40.661Z,9.80
2023-05-20T08:11:19.180Z,8.80
2023-05-20T08:13:53.591Z,8.27
2023-05-20T08:16:28.875Z,8.63
2023-05-20T08:19:02.355Z,8.20
2023-05-20T08:21:36.721Z,7.50
2023-05-20T08:24:11.147Z,9.00
2023-05-20T08:26:46.715Z,9.03
2023-05-20T08:29:20.865Z,8.20
2023-05-20T08:31:55.067Z,8.13
2023-05-20T08:34:29.285Z,7.63
2023-05-20T08:37:03.373Z,7.80
2023-05-20T08:39:37.508Z,7.87
2023-05-20T08:42:14.065Z,7.33
2023-05-20T08:44:49.298Z,7.10
2023-05-20T08:47:25.086Z,7.65
2023-05-20T08:49:59.562Z,6.67
2023-05-20T08:52:36.867Z,7.70
2023-05-20T08:55:16.459Z,6.93
2023-05-20T08:57:50.188Z,6.67
2023-05-20T09:00:28.927Z,6.30
2023-05-20T09:03:04.393Z,6.23
2023-05-20T09:05:38.495Z,7.07
2023-05-20T09:08:14.196Z,6.07
2023-05-20T09:10:47.549Z,7.00
2023-05-20T09:13:23.489Z,6.67
2023-05-20T09:15:57.594Z,6.57
2023-05-20T09:18:32.119Z,6.30
2023-05-20T09:21:08.334Z,6.53
2023-05-20T09:23:42.169Z,6.80
2023-05-20T09:26:15.287Z,6.93
2023-05-20T09:28:49.164Z,6.60
2023-05-20T09:31:27.280Z,6.40
2023-05-20T09:34:03.370Z,6.07
2023-05-20T09:36:38.474Z,6.37
2023-05-20T09:39:16.155Z,6.10
2023-05-20T09:41:57.228Z,5.83
2023-05-20T09:44:31.882Z,6.12
2023-05-20T09:47:08.642Z,5.30
2023-05-20T09:49:44.979Z,5.63
2023-05-20T09:52:21.316Z,14.50
2023-05-20T09:54:56.645Z,15.57
2023-05-20T09:57:32.007Z,8.30
2023-05-20T10:00:08.743Z,16.77
2023-05-20T10:02:52.429Z,6.83
2023-05-20T10:05:30.961Z,27.73
2023-05-20T10:08:33.676Z,10.40
2023-05-20T10:11:17.076Z,53.63
2023-05-20T10:14:08.909Z,15.60
2023-05-20T10:16:49.820Z,578.05
2023-05-20T10:19:32.194Z,157.70
2023-05-20T10:22:08.909Z,356.00
2023-05-20T10:24:44.749Z,242.07
2023-05-20T10:27:19.495Z,374.20
2023-05-20T10:29:56.693Z,126.83
2023-05-20T10:32:32.484Z,225.50
2023-05-20T10:35:10.788Z,90.53
2023-05-20T10:37:48.413Z,175.73
2023-05-20T10:40:23.597Z,78.47
2023-05-20T10:43:01.286Z,139.43
2023-05-20T10:45:37.623Z,225.70
2023-05-20T10:48:22.166Z,139.07
2023-05-20T10:50:59.978Z,538.93
2023-05-20T10:53:40.713Z,84.07
2023-05-20T10:56:23.153Z,226.60
2023-05-20T10:58:57.804Z,278.97
2023-05-20T11:01:32.301Z,468.07
2023-05-20T11:04:07.181Z,474.40
2023-05-20T11:06:51.308Z,81.10
2023-05-20T11:09:26.046Z,60.77
2023-05-20T11:11:59.951Z,17.05
2023-05-20T11:14:33.576Z,24.13
2023-05-20T11:17:09.607Z,19.40
2023-05-20T11:19:43.117Z,9.33
2023-05-20T11:22:17.423Z,7.10
2023-05-20T11:24:54.004Z,5.50
2023-05-20T11:27:27.395Z,6.00
2023-05-20T11:30:00.593Z,6.83
2023-05-20T11:32:34.837Z,6.07
2023-05-20T11:35:21.090Z,6.10
2023-05-20T11:38:05.327Z,5.90
2023-05-20T11:40:49.772Z,5.80
2023-05-20T11:43:26.732Z,6.60
2023-05-20T11:46:00.506Z,6.23
2023-05-20T11:48:34.247Z,5.63
2023-05-20T11:51:10.088Z,6.30
2023-05-20T11:53:44.393Z,6.37
2023-05-20T11:56:18.109Z,5.67
2023-05-20T11:58:52.580Z,5.43
2023-05-20T12:01:26.367Z,5.37
2023-05-20T12:04:01.159Z,5.70
2023-05-20T12:06:35.234Z,6.13
2023-05-20T12:09:10.715Z,5.00
2023-05-20T12:11:45.347Z,5.00
2023-05-20T12:14:19.429Z,5.17
2023-05-20T12:16:53.898Z,4.87
2023-05-20T12:19:27.256Z,4.80
2023-05-20T12:22:01.342Z,4.97
2023-05-20T12:24:35.439Z,4.67
2023-05-20T12:27:09.565Z,5.10
2023-05-20T12:29:43.006Z,4.33
2023-05-20T12:32:16.826Z,5.07
2023-05-20T12:34:50.896Z,5.40
2023-05-20T12:37:25.095Z,4.97
2023-05-20T12:39:58.788Z,7.50
2023-05-20T12:42:33.213Z,8.17
2023-05-20T12:45:08.377Z,5.57
2023-05-20T12:47:43.372Z,4.90
2023-05-20T12:50:17.210Z,4.70
2023-05-20T12:52:51.090Z,5.33
2023-05-20T12:55:25.434Z,4.90
2023-05-20T12:57:59.518Z,6.90
2023-05-20T13:00:33.656Z,6.27
2023-05-20T13:03:07.714Z,5.37
2023-05-20T13:05:41.556Z,4.80
2023-05-20T13:08:15.555Z,4.40
2023-05-20T13:10:49.988Z,4.20
2023-05-20T13:13:23.578Z,4.53
2023-05-20T13:15:58.057Z,3.93
2023-05-20T13:18:32.205Z,3.70
2023-05-20T13:21:06.017Z,3.80
2023-05-20T13:23:40.533Z,3.80
2023-05-20T13:26:13.832Z,3.53
2023-05-20T13:28:48.154Z,3.80
2023-05-20T13:31:21.942Z,3.70
2023-05-20T13:33:59.558Z,3.73
2023-05-20T13:36:33.020Z,3.50
2023-05-20T13:39:06.963Z,4.23
2023-05-20T13:41:40.760Z,4.23
2023-05-20T13:44:14.968Z,4.80
2023-05-20T13:46:48.657Z,4.65
2023-05-20T13:49:25.673Z,4.30
2023-05-20T13:51:59.102Z,4.67
2023-05-20T13:54:32.674Z,4.30
2023-05-20T13:57:08.250Z,3.97
2023-05-20T13:59:42.005Z,3.93
2023-05-20T14:02:15.595Z,4.00
2023-05-20T14:04:49.508Z,3.57
2023-05-20T14:07:23.266Z,4.53
2023-05-20T14:09:57.726Z,4.73
2023-05-20T14:12:31.955Z,4.17
2023-05-20T14:15:06.012Z,4.77
2023-05-20T14:17:39.603Z,4.07
2023-05-20T14:20:15.557Z,4.33
2023-05-20T14:22:49.294Z,4.30
2023-05-20T14:25:23.489Z,4.30
2023-05-20T14:27:56.737Z,4.13
2023-05-20T14:30:30.495Z,4.33
2023-05-20T14:33:04.454Z,3.40
2023-05-20T14:35:38.502Z,3.63
2023-05-20T14:38:12.305Z,3.77
2023-05-20T14:40:46.387Z,3.80
2023-05-20T14:43:20.679Z,3.97
2023-05-20T14:45:54.686Z,4.40
2023-05-20T14:48:28.627Z,4.67
2023-05-20T14:51:02.504Z,4.70
2023-05-20T14:53:36.518Z,4.70
2023-05-20T14:56:10.728Z,4.73
2023-05-20T14:58:44.370Z,4.67
2023-05-20T15:01:18.732Z,5.17
2023-05-20T15:03:52.650Z,4.27
2023-05-20T15:06:26.766Z,4.70
2023-05-20T15:09:00.776Z,5.67
2023-05-20T15:11:34.282Z,5.50
2023-05-20T15:14:08.032Z,4.73
2023-05-20T15:16:42.385Z,4.90
2023-05-20T15:19:18.091Z,5.00
2023-05-20T15:21:53.163Z,4.80
2023-05-20T15:24:27.076Z,4.70
2023-05-20T15:27:00.486Z,5.63
2023-05-20T15:29:34.284Z,4.33
2023-05-20T15:32:10.371Z,4.33
2023-05-20T15:34:43.985Z,4.40
2023-05-20T15:37:18.052Z,4.73
2023-05-20T15:39:51.962Z,4.73
2023-05-20T15:42:25.970Z,4.50
2023-05-20T15:45:00.272Z,4.27
2023-05-20T15:47:34.062Z,4.70
2023-05-20T15:50:11.413Z,4.60
2023-05-20T15:52:45.321Z,4.83
2023-05-20T15:55:19.800Z,4.70
2023-05-20T15:57:53.198Z,4.53
2023-05-20T16:00:27.287Z,4.50
2023-05-20T16:03:01.834Z,4.93
2023-05-20T16:05:35.558Z,4.20
2023-05-20T16:08:09.927Z,4.97
2023-05-20T16:10:43.365Z,4.73
2023-05-20T16:13:17.867Z,5.03
2023-05-20T16:15:51.513Z,5.53
2023-05-20T16:18:26.102Z,6.63
2023-05-20T16:21:00.630Z,4.10
2023-05-20T16:23:34.495Z,3.93
2023-05-20T16:26:08.147Z,4.30
2023-05-20T16:28:42.159Z,4.17
2023-05-20T16:31:15.330Z,5.03
2023-05-20T16:33:49.288Z,5.13
2023-05-20T16:36:24.156Z,4.50
2023-05-20T16:38:58.369Z,4.63
2023-05-20T16:41:32.901Z,4.50
2023-05-20T16:44:06.717Z,3.90
2023-05-20T16:46:40.312Z,4.00
2023-05-20T16:49:15.109Z,3.90
2023-05-20T16:51:50.304Z,4.23
2023-05-20T16:54:23.977Z,4.37
2023-05-20T16:56:57.592Z,3.87
2023-05-20T16:59:31.693Z,4.90
2023-05-20T17:02:05.443Z,4.60
2023-05-20T17:04:39.121Z,4.25
2023-05-20T17:07:13.852Z,5.03
2023-05-20T17:09:48.032Z,4.77
2023-05-20T17:12:22.257Z,5.30
2023-05-20T17:14:56.418Z,5.00
2023-05-20T17:17:30.788Z,4.53
2023-05-20T17:20:05.834Z,4.77
2023-05-20T17:22:39.860Z,4.53
2023-05-20T17:25:14.821Z,4.13
2023-05-20T17:27:48.667Z,4.67
2023-05-20T17:30:21.967Z,4.07
2023-05-20T17:32:56.678Z,5.00
2023-05-20T17:35:31.866Z,5.03
2023-05-20T17:38:05.419Z,5.83
2023-05-20T17:40:39.465Z,5.07
2023-05-20T17:43:13.440Z,4.97
2023-05-20T17:45:47.884Z,5.20
2023-05-20T17:48:22.280Z,5.93
2023-05-20T17:50:58.355Z,5.10
2023-05-20T17:53:31.926Z,4.97
2023-05-20T17:56:06.558Z,5.57
2023-05-20T17:58:40.571Z,4.67
2023-05-20T18:01:15.364Z,4.87
2023-05-20T18:03:48.867Z,4.83
2023-05-20T18:06:23.277Z,4.97
2023-05-20T18:08:57.633Z,5.37
2023-05-20T18:11:32.944Z,5.03
2023-05-20T18:14:06.740Z,4.50
2023-05-20T18:16:40.589Z,4.93
2023-05-20T18:19:15.398Z,4.10
2023-05-20T18:21:49.433Z,4.70
2023-05-20T18:24:22.944Z,5.40
2023-05-20T18:26:55.850Z,4.97
2023-05-20T18:29:29.711Z,5.03
2023-05-20T18:32:03.706Z,4.53
2023-05-20T18:34:37.658Z,4.80
2023-05-20T18:37:12.238Z,5.40
2023-05-20T18:39:46.127Z,4.70
2023-05-20T18:42:19.761Z,5.20
2023-05-20T18:44:53.398Z,5.20
2023-05-20T18:47:28.499Z,5.27
2023-05-20T18:50:03.147Z,5.97
2023-05-20T18:52:36.752Z,6.00
2023-05-20T18:55:12.197Z,6.37
2023-05-20T18:57:45.277Z,5.70
2023-05-20T19:00:21.608Z,6.10
2023-05-20T19:02:58.332Z,7.27
2023-05-20T19:05:33.931Z,5.87
2023-05-20T19:08:09.590Z,6.40
2023-05-20T19:10:44.541Z,5.70
2023-05-20T19:13:18.538Z,5.80
2023-05-20T19:15:53.554Z,6.07
2023-05-20T19:18:28.213Z,5.67
2023-05-20T19:21:02.468Z,6.20
2023-05-20T19:23:36.483Z,5.97
2023-05-20T19:26:10.747Z,6.10
2023-05-20T19:28:44.416Z,6.23
2023-05-20T19:31:21.365Z,6.50
2023-05-20T19:33:55.301Z,7.30
2023-05-20T19:36:29.310Z,6.60
2023-05-20T19:39:03.728Z,6.57
2023-05-20T19:41:38.601Z,6.97
2023-05-20T19:44:12.490Z,6.13
2023-05-20T19:46:48.475Z,6.77
2023-05-20T19:49:22.437Z,6.53
2023-05-20T19:51:57.534Z,6.70
2023-05-20T19:54:31.772Z,6.77
2023-05-20T19:57:04.675Z,8.37
2023-05-20T19:59:39.084Z,7.75
2023-05-20T20:02:13.295Z,11.53
2023-05-20T20:04:47.510Z,12.27
2023-05-20T20:07:21.843Z,14.73
2023-05-20T20:09:56.449Z,15.37
2023-05-20T20:12:30.356Z,15.77
2023-05-20T20:15:04.368Z,16.60
2023-05-20T20:17:45.927Z,13.63
2023-05-20T20:20:20.317Z,10.50
2023-05-20T20:22:54.288Z,7.70
2023-05-20T20:25:28.294Z,9.57
2023-05-20T20:28:01.655Z,12.83
2023-05-20T20:30:34.976Z,19.40
2023-05-20T20:33:09.708Z,11.97
2023-05-20T20:35:43.838Z,10.47
2023-05-20T20:38:18.475Z,8.23
2023-05-20T20:40:54.101Z,7.90
2023-05-20T20:43:29.129Z,7.50
2023-05-20T20:46:03.697Z,7.80
2023-05-20T20:48:37.146Z,8.20
2023-05-20T20:51:11.360Z,8.07
2023-05-20T20:53:47.229Z,9.20
2023-05-20T20:56:20.459Z,8.83
2023-05-20T20:58:57.385Z,8.93
2023-05-20T21:01:31.450Z,8.53
2023-05-20T21:04:06.540Z,8.53
2023-05-20T21:06:40.460Z,7.80
2023-05-20T21:09:14.773Z,7.20
2023-05-20T21:11:50.399Z,6.83
2023-05-20T21:14:24.408Z,6.93
2023-05-20T21:16:58.224Z,6.80
2023-05-20T21:19:32.653Z,6.73
2023-05-20T21:22:08.171Z,6.80
2023-05-20T21:24:42.199Z,6.83
2023-05-20T21:27:15.750Z,6.87
2023-05-20T21:29:51.000Z,7.27
2023-05-20T21:32:24.844Z,6.43
2023-05-20T21:34:58.934Z,6.80
2023-05-20T21:37:33.365Z,6.90
2023-05-20T21:40:10.115Z,6.70
2023-05-20T21:42:45.183Z,6.77
2023-05-20T21:45:19.688Z,6.97
2023-05-20T21:47:53.411Z,6.87
2023-05-20T21:50:27.585Z,6.10
2023-05-20T21:53:00.783Z,6.37
2023-05-20T21:55:35.428Z,6.60
2023-05-20T21:58:09.804Z,6.37
2023-05-20T22:00:43.960Z,7.40
2023-05-20T22:03:18.079Z,7.10
2023-05-20T22:05:52.212Z,6.83
2023-05-20T22:08:28.435Z,7.30
2023-05-20T22:11:06.140Z,7.30
2023-05-20T22:13:41.804Z,7.67
2023-05-20T22:16:15.604Z,7.07
2023-05-20T22:18:49.900Z,8.23
2023-05-20T22:21:24.845Z,7.50
2023-05-20T22:23:58.512Z,7.50
2023-05-20T22:26:34.408Z,7.67
2023-05-20T22:29:08.968Z,7.50
2023-05-20T22:31:43.087Z,7.80
2023-05-20T22:34:16.729Z,7.27
2023-05-20T22:36:50.592Z,7.23
2023-05-20T22:39:25.778Z,7.50
2023-05-20T22:41:59.514Z,7.97
2023-05-20T22:44:33.648Z,6.63
2023-05-20T22:47:07.315Z,7.57
2023-05-20T22:49:42.476Z,7.17
2023-05-20T22:52:17.680Z,7.50
2023-05-20T22:54:51.175Z,7.90
2023-05-20T22:57:25.104Z,7.73
2023-05-20T22:59:58.437Z,7.37
2023-05-20T23:02:32.008Z,7.70
2023-05-20T23:05:06.898Z,7.93
2023-05-20T23:07:41.045Z,7.53
2023-05-20T23:10:15.321Z,7.67
2023-05-20T23:12:48.501Z,7.47
2023-05-20T23:15:25.620Z,7.73
2023-05-20T23:17:59.113Z,7.37
2023-05-20T23:20:32.381Z,7.63
2023-05-20T23:23:11.126Z,7.90
2023-05-20T23:25:46.394Z,7.93
2023-05-20T23:28:19.929Z,7.10
2023-05-20T23:30:53.251Z,6.80
2023-05-20T23:33:27.298Z,7.50
2023-05-20T23:36:01.328Z,7.57
2023-05-20T23:38:35.486Z,7.50
2023-05-20T23:41:10.180Z,7.27
2023-05-20T23:43:44.162Z,7.43
2023-05-20T23:46:18.739Z,7.83
2023-05-20T23:48:53.345Z,7.70
2023-05-20T23:51:28.097Z,7.85
2023-05-20T23:54:01.507Z,7.23
2023-05-20T23:56:34.860Z,7.80
2023-05-20T23:59:08.371Z,7.53
